Time;durP1;ratioP1;P1;durP2;ratioP2;P2;SDS_P1;SDS_P2;PMS_P1;PMS_P2;Temp;Humidity;BMP_temperature;BMP_pressure;BME280_temperature;BME280_humidity;BME280_pressure;Samples;Min_cycle;Max_cycle;Signal;HPM_P1;HPM_P2
2021/11/24 00:00:21;;;;;;;39.28;18.15;;;;;;;-1.86;100.00;96256.59;5065298;28;20414;-74
2021/11/24 00:03:07;;;;;;;42.00;18.27;;;;;;;-1.94;100.00;96260.84;5052056;28;20122;-74
2021/11/24 00:05:33;;;;;;;41.55;17.40;;;;;;;-1.97;100.00;96256.03;5060417;28;20115;-74
2021/11/24 00:07:59;;;;;;;42.50;18.17;;;;;;;-1.77;100.00;96250.38;5055308;28;20056;-74
2021/11/24 00:10:24;;;;;;;37.25;17.55;;;;;;;-1.65;100.00;96249.00;5055376;28;20094;-74
2021/11/24 00:12:50;;;;;;;37.88;17.02;;;;;;;-1.70;100.00;96250.50;5054976;28;20041;-74
2021/11/24 00:15:16;;;;;;;34.88;15.80;;;;;;;-1.75;100.00;96248.44;5064321;28;20048;-74
2021/11/24 00:17:41;;;;;;;35.60;16.02;;;;;;;-1.78;100.00;96248.78;5065628;28;20824;-74
2021/11/24 00:20:08;;;;;;;38.63;16.25;;;;;;;-1.78;100.00;96251.34;5067476;28;20048;-74
2021/11/24 00:22:34;;;;;;;37.17;17.02;;;;;;;-1.87;100.00;96254.97;5069372;28;20028;-74
2021/11/24 00:24:59;;;;;;;35.67;16.05;;;;;;;-1.92;100.00;96248.56;5070902;28;20043;-74
2021/11/24 00:27:25;;;;;;;33.88;14.88;;;;;;;-1.92;100.00;96248.56;5068482;28;20553;-74
2021/11/24 00:29:53;;;;;;;34.63;16.45;;;;;;;-2.01;100.00;96249.59;5057500;28;20052;-74
2021/11/24 00:32:20;;;;;;;39.22;18.05;;;;;;;-2.30;100.00;96243.34;5057131;28;20406;-74
2021/11/24 00:34:46;;;;;;;38.85;16.98;;;;;;;-2.45;100.00;96242.44;5062982;28;20040;-74
2021/11/24 00:37:12;;;;;;;34.53;15.30;;;;;;;-2.23;100.00;96242.63;5069160;28;20584;-74
2021/11/24 00:39:37;;;;;;;36.70;16.42;;;;;;;-2.12;100.00;96242.25;5068192;28;20044;-74
2021/11/24 00:42:04;;;;;;;37.67;16.05;;;;;;;-1.99;100.00;96226.22;5070147;28;20047;-74
2021/11/24 00:44:29;;;;;;;41.33;17.60;;;;;;;-2.15;100.00;96232.28;5069234;28;20044;-74
2021/11/24 00:46:55;;;;;;;41.50;17.40;;;;;;;-2.35;100.00;96231.91;5070353;28;20047;-74
2021/11/24 00:49:20;;;;;;;40.42;17.73;;;;;;;-2.41;100.00;96233.41;5069373;28;20321;-74
2021/11/24 00:51:46;;;;;;;36.40;15.88;;;;;;;-2.23;100.00;96234.91;5070080;28;20433;-74
2021/11/24 00:54:11;;;;;;;43.83;17.23;;;;;;;-2.19;100.00;96231.03;5069360;28;20045;-74
2021/11/24 00:56:37;;;;;;;40.38;17.58;;;;;;;-2.42;100.00;96226.63;5069706;28;20421;-74
2021/11/24 00:59:04;;;;;;;47.88;19.48;;;;;;;-2.28;100.00;96233.63;5067473;28;20406;-74
2021/11/24 01:01:30;;;;;;;50.50;18.90;;;;;;;-2.30;100.00;96230.44;5070633;28;20048;-74
2021/11/24 01:03:55;;;;;;;47.58;18.67;;;;;;;-2.17;100.00;96218.75;5069776;28;20048;-74
2021/11/24 01:06:21;;;;;;;48.70;19.45;;;;;;;-2.07;100.00;96224.47;5056452;28;20403;-74
2021/11/24 01:08:47;;;;;;;42.58;18.45;;;;;;;-2.09;100.00;96226.44;5054742;28;20086;-74
2021/11/24 01:11:13;;;;;;;48.65;19.25;;;;;;;-2.00;100.00;96235.72;5070438;28;20055;-74
2021/11/24 01:13:39;;;;;;;52.72;21.45;;;;;;;-1.93;100.00;96226.31;5067973;28;20040;-74
2021/11/24 01:16:05;;;;;;;53.90;21.17;;;;;;;-1.85;100.00;96222.06;5069372;28;20064;-74
2021/11/24 01:18:31;;;;;;;55.10;21.10;;;;;;;-1.78;100.00;96217.81;5067557;28;20063;-74
2021/11/24 01:20:56;;;;;;;53.95;21.58;;;;;;;-1.75;100.00;96222.66;5066016;28;20637;-74
2021/11/24 01:23:22;;;;;;;59.47;23.20;;;;;;;-1.63;100.00;96226.41;5064381;28;20045;-74
2021/11/24 01:25:47;;;;;;;63.72;23.95;;;;;;;-1.64;100.00;96214.50;5061274;28;20041;-74
2021/11/24 01:28:13;;;;;;;58.40;22.73;;;;;;;-1.57;100.00;96219.72;5067718;28;20731;-74
2021/11/24 01:30:39;;;;;;;52.40;20.55;;;;;;;-1.46;100.00;96216.72;5067245;28;20036;-74
2021/11/24 01:33:04;;;;;;;51.65;20.73;;;;;;;-1.32;100.00;96212.56;5064061;28;20049;-74
2021/11/24 01:35:30;;;;;;;56.53;21.75;;;;;;;-1.39;100.00;96211.66;5081015;28;20101;-74
2021/11/24 01:37:56;;;;;;;51.38;20.10;;;;;;;-1.22;100.00;96205.34;5061915;28;20040;-74
2021/11/24 01:40:21;;;;;;;41.20;16.52;;;;;;;-1.03;100.00;96198.06;5067261;28;20055;-74
2021/11/24 01:42:47;;;;;;;46.22;18.48;;;;;;;-1.01;100.00;96197.88;5066345;28;20040;-74
2021/11/24 01:45:17;;;;;;;47.92;17.63;;;;;;;-1.01;100.00;96184.97;5058023;28;20045;-74
2021/11/24 01:47:44;;;;;;;47.72;17.88;;;;;;;-0.94;100.00;96194.38;5061208;28;20102;-74
2021/11/24 01:50:10;;;;;;;51.35;19.55;;;;;;;-0.94;100.00;96189.22;5068550;28;20045;-74
2021/11/24 01:52:36;;;;;;;50.20;19.30;;;;;;;-1.02;100.00;96186.75;5068637;28;20072;-74
2021/11/24 01:55:04;;;;;;;44.17;16.52;;;;;;;-0.95;100.00;96177.31;5059596;28;20167;-74
2021/11/24 01:57:30;;;;;;;51.15;18.13;;;;;;;-0.91;100.00;96178.50;5062545;28;20519;-74
2021/11/24 01:59:56;;;;;;;45.88;17.95;;;;;;;-0.81;100.00;96178.25;5061119;28;20074;-74
2021/11/24 02:02:23;;;;;;;46.60;18.52;;;;;;;-0.96;100.00;96178.28;5069320;28;20045;-74
2021/11/24 02:04:48;;;;;;;49.85;18.38;;;;;;;-0.92;100.00;96176.13;5067739;28;20497;-74
2021/11/24 02:07:14;;;;;;;45.75;16.80;;;;;;;-0.83;100.00;96169.88;5060798;28;20071;-74
2021/11/24 02:09:42;;;;;;;46.22;16.75;;;;;;;-0.90;100.00;96174.97;5054307;28;20672;-74
2021/11/24 02:12:08;;;;;;;56.05;18.15;;;;;;;-1.07;100.00;96168.38;5049906;28;20056;-74
2021/11/24 02:14:33;;;;;;;55.08;18.80;;;;;;;-1.16;100.00;96172.06;5066349;28;20045;-74
2021/11/24 02:17:00;;;;;;;48.38;17.42;;;;;;;-0.94;100.00;96171.13;5065552;28;20047;-73
2021/11/24 02:19:32;;;;;;;49.40;17.25;;;;;;;-0.82;100.00;96170.66;5066795;28;20040;-74
2021/11/24 02:21:58;;;;;;;54.55;18.75;;;;;;;-0.85;100.00;96160.69;5061159;28;20048;-74
2021/11/24 02:24:27;;;;;;;48.92;17.80;;;;;;;-0.79;100.00;96165.13;5062720;28;20498;-74
2021/11/24 02:26:52;;;;;;;50.45;17.48;;;;;;;-0.83;100.00;96158.72;5051376;28;20421;-74
2021/11/24 02:29:18;;;;;;;53.80;19.73;;;;;;;-1.00;100.00;96152.97;5066947;28;20049;-74
2021/11/24 02:31:50;;;;;;;51.50;19.25;;;;;;;-1.02;100.00;96150.59;5063456;28;20041;-74
2021/11/24 02:34:16;;;;;;;58.08;18.77;;;;;;;-1.02;100.00;96140.25;5063648;28;20047;-74
2021/11/24 02:36:42;;;;;;;49.08;18.10;;;;;;;-0.80;100.00;96141.09;5062855;28;20043;-74
2021/11/24 02:39:08;;;;;;;47.88;18.80;;;;;;;-0.80;100.00;96138.50;5065115;28;20426;-74
2021/11/24 02:41:35;;;;;;;52.83;18.40;;;;;;;-0.95;100.00;96130.78;5066986;28;20740;-74
2021/11/24 02:44:26;;;;;;;54.55;19.15;;;;;;;-1.10;100.00;96122.25;5054826;28;20048;-74
2021/11/24 02:47:13;;;;;;;51.28;17.80;;;;;;;-0.98;100.00;96115.63;5060006;28;20803;-74
2021/11/24 02:49:41;;;;;;;49.55;17.98;;;;;;;-1.12;100.00;96119.84;5054914;28;20045;-74
2021/11/24 02:52:08;;;;;;;53.47;18.00;;;;;;;-0.99;100.00;96106.28;5055377;28;20045;-74
2021/11/24 02:54:33;;;;;;;45.78;17.30;;;;;;;-0.83;100.00;96112.22;5067532;28;20033;-74
2021/11/24 02:57:01;;;;;;;46.33;17.83;;;;;;;-0.88;100.00;96105.81;5067582;28;20041;-74
2021/11/24 02:59:27;;;;;;;51.83;17.42;;;;;;;-0.93;100.00;96102.97;5055714;28;20040;-74
2021/11/24 03:01:53;;;;;;;45.95;17.08;;;;;;;-0.94;100.00;96101.38;5067531;28;20063;-74
2021/11/24 03:04:18;;;;;;;46.67;15.93;;;;;;;-0.90;100.00;96101.81;5067097;28;20041;-74
2021/11/24 03:06:44;;;;;;;46.63;17.05;;;;;;;-0.82;100.00;96103.47;5059581;28;20044;-74
2021/11/24 03:09:10;;;;;;;47.75;16.92;;;;;;;-0.65;100.00;96094.50;5051441;28;20967;-74
2021/11/24 03:11:35;;;;;;;47.38;17.33;;;;;;;-0.70;100.00;96092.47;5075982;28;20123;-74
2021/11/24 03:14:01;;;;;;;43.10;15.95;;;;;;;-0.76;100.00;96079.47;5067640;28;20133;-74
2021/11/24 03:16:26;;;;;;;47.65;16.40;;;;;;;-0.88;100.00;96084.34;5063050;28;20505;-74
2021/11/24 03:18:52;;;;;;;47.05;17.35;;;;;;;-1.13;100.00;96082.09;5048539;28;20414;-74
2021/11/24 03:21:18;;;;;;;47.90;16.70;;;;;;;-0.92;100.00;96078.75;5068362;28;20037;-74
2021/11/24 03:23:44;;;;;;;47.83;17.35;;;;;;;-0.87;100.00;96076.41;5067115;28;20040;-74
2021/11/24 03:26:10;;;;;;;44.58;15.70;;;;;;;-0.71;100.00;96074.56;5057972;28;20051;-74
2021/11/24 03:28:35;;;;;;;45.25;16.67;;;;;;;-0.97;100.00;96073.31;5065199;28;20056;-74
2021/11/24 03:31:01;;;;;;;43.50;15.70;;;;;;;-0.96;100.00;96072.34;5066586;28;20118;-74
2021/11/24 03:33:26;;;;;;;43.40;16.23;;;;;;;-0.88;100.00;96069.66;5066030;28;20044;-74
2021/11/24 03:35:52;;;;;;;42.83;16.48;;;;;;;-0.78;100.00;96063.38;5067752;28;20043;-74
2021/11/24 03:38:17;;;;;;;44.03;16.63;;;;;;;-0.68;100.00;96058.69;5065662;28;20489;-74
2021/11/24 03:40:43;;;;;;;39.33;15.75;;;;;;;-0.65;100.00;96063.47;5049089;28;20037;-74
2021/11/24 03:43:08;;;;;;;42.70;15.60;;;;;;;-0.78;100.00;96058.19;5061596;28;20044;-74
2021/11/24 03:45:37;;;;;;;39.50;15.60;;;;;;;-0.70;100.00;96050.34;5065375;28;20418;-74
2021/11/24 03:48:05;;;;;;;39.63;15.50;;;;;;;-0.82;100.00;96051.78;5064548;28;20036;-74
2021/11/24 03:50:30;;;;;;;43.17;16.23;;;;;;;-0.88;100.00;96051.56;5067236;28;20045;-74
2021/11/24 03:52:56;;;;;;;35.58;13.80;;;;;;;-0.69;100.00;96049.31;5066333;28;20056;-74
2021/11/24 03:55:23;;;;;;;35.10;13.90;;;;;;;-0.91;100.00;96054.50;5068055;28;20036;-74
2021/11/24 03:57:49;;;;;;;33.35;13.25;;;;;;;-0.73;100.00;96055.88;5062187;28;20048;-74
2021/11/24 04:00:19;;;;;;;36.85;14.63;;;;;;;-0.92;100.00;96049.50;5065084;28;20044;-74
2021/11/24 04:02:45;;;;;;;40.17;14.45;;;;;;;-1.06;100.00;96054.53;5070725;28;20504;-74
2021/11/24 04:05:11;;;;;;;38.25;14.82;;;;;;;-0.94;100.00;96049.69;5059584;28;20081;-74
2021/11/24 04:07:37;;;;;;;44.25;14.85;;;;;;;-0.97;100.00;96044.91;5062856;28;20049;-74
2021/11/24 04:10:05;;;;;;;37.65;14.55;;;;;;;-1.01;100.00;96048.81;5058918;28;20529;-74
2021/11/24 04:12:30;;;;;;;38.70;15.48;;;;;;;-1.09;100.00;96046.38;5052572;28;20110;-74
2021/11/24 04:14:56;;;;;;;37.63;14.18;;;;;;;-0.96;100.00;96043.09;5071683;28;20486;-74
2021/11/24 04:17:21;;;;;;;34.08;13.40;;;;;;;-0.87;100.00;96045.38;5060507;28;20143;-74
2021/11/24 04:19:48;;;;;;;40.53;14.38;;;;;;;-0.98;100.00;96045.88;5060170;28;20098;-74
2021/11/24 04:22:13;;;;;;;33.90;13.50;;;;;;;-0.98;100.00;96038.13;5078946;28;20044;-74
2021/11/24 04:24:40;;;;;;;33.55;14.13;;;;;;;-0.97;100.00;96037.13;5056929;28;20120;-74
2021/11/24 04:27:06;;;;;;;35.70;13.45;;;;;;;-1.08;100.00;96037.63;5055801;28;20051;-74
2021/11/24 04:29:31;;;;;;;37.75;14.02;;;;;;;-1.03;100.00;96040.47;5066649;28;20053;-74
2021/11/24 04:31:57;;;;;;;35.20;12.63;;;;;;;-1.12;100.00;96041.53;5066633;28;20126;-74
2021/11/24 04:34:23;;;;;;;38.72;14.88;;;;;;;-0.99;100.00;96036.53;5051936;28;20578;-74
2021/11/24 04:36:48;;;;;;;31.08;13.18;;;;;;;-0.84;100.00;96033.09;5053626;28;20457;-74
2021/11/24 04:39:14;;;;;;;41.42;14.35;;;;;;;-1.05;100.00;96042.41;5066976;28;20043;-74
2021/11/24 04:41:39;;;;;;;38.97;14.35;;;;;;;-1.17;100.00;96041.31;5070317;28;20044;-74
2021/11/24 04:44:05;;;;;;;44.38;15.30;;;;;;;-1.14;100.00;96038.34;5056957;28;20037;-74
2021/11/24 04:46:31;;;;;;;37.30;14.27;;;;;;;-1.17;100.00;96039.50;5070374;28;20109;-74
2021/11/24 04:48:57;;;;;;;37.47;14.75;;;;;;;-0.78;100.00;96029.78;5065186;28;20056;-74
2021/11/24 04:51:22;;;;;;;36.45;14.40;;;;;;;-0.76;100.00;96027.78;5071395;28;20037;-74
2021/11/24 04:53:48;;;;;;;34.50;13.85;;;;;;;-0.86;100.00;96030.69;5065856;28;20711;-74
2021/11/24 04:56:14;;;;;;;35.53;12.90;;;;;;;-0.78;100.00;96032.34;5051846;28;20418;-74
2021/11/24 04:58:50;;;;;;;37.05;14.07;;;;;;;-0.72;100.00;96034.19;5067160;28;20070;-75
2021/11/24 05:01:15;;;;;;;33.72;14.80;;;;;;;-0.89;100.00;96031.88;5070714;28;20040;-74
2021/11/24 05:03:41;;;;;;;34.30;13.27;;;;;;;-0.87;100.00;96035.06;5069122;28;20048;-74
2021/11/24 05:06:06;;;;;;;39.53;15.15;;;;;;;-0.87;100.00;96035.06;5061790;28;20225;-74
2021/11/24 05:08:34;;;;;;;33.15;13.13;;;;;;;-0.98;100.00;96037.31;5065671;28;20124;-75
2021/11/24 05:11:01;;;;;;;34.75;13.82;;;;;;;-0.88;100.00;96043.00;5070166;28;20055;-74
2021/11/24 05:13:27;;;;;;;42.92;15.52;;;;;;;-1.00;100.00;96040.09;5055288;28;20041;-74
2021/11/24 05:15:57;;;;;;;43.83;15.88;;;;;;;-1.14;100.00;96033.19;5056500;28;20080;-74
2021/11/24 05:18:28;;;;;;;49.40;16.73;;;;;;;-1.23;100.00;96035.88;5049001;28;20056;-74
2021/11/24 05:21:01;;;;;;;55.00;17.48;;;;;;;-1.22;100.00;96032.31;5067485;28;20037;-74
2021/11/24 05:23:29;;;;;;;52.33;15.93;;;;;;;-1.22;100.00;96032.31;5062301;28;20119;-74
2021/11/24 05:25:54;;;;;;;39.25;14.85;;;;;;;-0.90;100.00;96034.63;5069502;28;20063;-75
2021/11/24 05:28:20;;;;;;;42.92;14.90;;;;;;;-1.06;100.00;96035.66;5062466;28;20612;-74
2021/11/24 05:30:45;;;;;;;47.15;17.15;;;;;;;-1.20;100.00;96044.25;5068568;28;20119;-74
2021/11/24 05:33:11;;;;;;;44.80;15.57;;;;;;;-1.20;100.00;96033.94;5058572;28;20041;-74
2021/11/24 05:35:36;;;;;;;44.22;14.75;;;;;;;-1.33;100.00;96030.19;5051102;28;20115;-75
2021/11/24 05:38:02;;;;;;;42.58;15.55;;;;;;;-1.03;100.00;96031.91;5067300;28;20044;-75
2021/11/24 05:40:27;;;;;;;39.65;14.30;;;;;;;-0.89;100.00;96031.88;5067811;28;20062;-75
2021/11/24 05:42:53;;;;;;;40.15;14.55;;;;;;;-1.02;100.00;96029.16;5068657;28;20041;-75
2021/11/24 05:48:03;;;;;;;33.70;12.93;;;;;;;-1.11;100.00;96027.66;5064211;28;20040;-75
2021/11/24 05:50:30;;;;;;;39.35;13.98;;;;;;;-1.14;100.00;96033.19;5069197;28;20045;-75
2021/11/24 05:52:56;;;;;;;36.75;14.05;;;;;;;-1.19;100.00;96030.34;5060081;28;20099;-74
2021/11/24 05:55:23;;;;;;;35.80;13.68;;;;;;;-0.96;100.00;96031.00;5069187;28;20044;-75
2021/11/24 05:57:49;;;;;;;34.00;13.68;;;;;;;-0.87;100.00;96029.88;5060870;28;20567;-75
2021/11/24 06:00:16;;;;;;;31.63;12.18;;;;;;;-0.84;100.00;96027.94;5064204;28;20059;-75
2021/11/24 06:02:42;;;;;;;34.58;13.52;;;;;;;-1.09;100.00;96021.34;5060221;28;20071;-75
2021/11/24 06:05:08;;;;;;;37.80;14.68;;;;;;;-1.24;100.00;96023.94;5050247;28;20052;-75
2021/11/24 06:07:34;;;;;;;46.47;15.73;;;;;;;-1.38;100.00;96017.03;5061219;28;20089;-75
2021/11/24 06:10:05;;;;;;;46.92;15.05;;;;;;;-1.18;100.00;96022.41;5067195;28;20052;-75
2021/11/24 06:12:31;;;;;;;42.05;14.75;;;;;;;-1.34;100.00;96026.00;5066959;28;20238;-74
2021/11/24 06:14:57;;;;;;;37.90;13.63;;;;;;;-1.14;100.00;96017.69;5055588;28;20214;-75
2021/11/24 06:17:22;;;;;;;33.97;13.05;;;;;;;-1.04;100.00;96028.53;5062464;28;20040;-74
2021/11/24 06:19:48;;;;;;;37.13;13.20;;;;;;;-1.25;100.00;96032.69;5065077;28;20094;-74
2021/11/24 06:22:14;;;;;;;40.17;14.25;;;;;;;-1.31;100.00;96023.06;5065328;28;20064;-74
2021/11/24 06:24:40;;;;;;;36.90;13.60;;;;;;;-1.30;100.00;96023.88;5066633;28;20052;-74
2021/11/24 06:27:05;;;;;;;40.13;13.38;;;;;;;-1.04;100.00;96028.53;5059993;28;20041;-74
2021/11/24 06:29:31;;;;;;;38.30;14.23;;;;;;;-1.16;100.00;96020.47;5065700;28;20097;-75
2021/11/24 06:31:57;;;;;;;38.22;12.77;;;;;;;-1.24;100.00;96031.69;5066690;28;20044;-74
2021/11/24 06:34:23;;;;;;;38.47;13.30;;;;;;;-1.48;100.00;96026.84;5054960;28;20049;-74
2021/11/24 06:36:48;;;;;;;36.83;14.05;;;;;;;-1.32;100.00;96026.66;5066509;28;20048;-74
2021/11/24 06:39:14;;;;;;;41.30;14.52;;;;;;;-1.60;100.00;96018.75;5063268;28;20562;-75
2021/11/24 06:41:40;;;;;;;45.55;15.18;;;;;;;-1.50;100.00;96028.81;5064530;28;20052;-74
2021/11/24 06:44:06;;;;;;;48.78;17.23;;;;;;;-1.51;100.00;96024.63;5061039;28;20037;-75
2021/11/24 06:46:33;;;;;;;51.97;16.95;;;;;;;-1.43;100.00;96029.69;5062187;28;20168;-75
2021/11/24 06:48:59;;;;;;;45.58;16.00;;;;;;;-1.42;100.00;96031.31;5064936;28;20044;-75
2021/11/24 06:51:25;;;;;;;52.15;16.15;;;;;;;-1.47;100.00;96028.44;5069163;28;20047;-75
2021/11/24 06:53:51;;;;;;;39.38;13.88;;;;;;;-1.35;100.00;96021.84;5057402;28;20041;-75
2021/11/24 06:56:16;;;;;;;44.63;14.70;;;;;;;-1.32;100.00;96031.81;5066007;28;20071;-75
2021/11/24 06:58:42;;;;;;;46.95;16.42;;;;;;;-1.35;100.00;96021.84;5062546;28;20108;-75
2021/11/24 07:01:08;;;;;;;38.20;14.23;;;;;;;-1.50;100.00;96019.28;5080520;28;20502;-75
2021/11/24 07:03:33;;;;;;;38.35;14.43;;;;;;;-1.26;100.00;96025.91;5065496;28;20494;-75
2021/11/24 07:05:59;;;;;;;31.75;12.57;;;;;;;-1.09;100.00;96030.88;5058734;28;20060;-75
2021/11/24 07:08:24;;;;;;;25.40;10.38;;;;;;;-1.08;100.00;96032.44;5057672;28;20045;-75
2021/11/24 07:10:50;;;;;;;33.42;12.60;;;;;;;-1.37;100.00;96028.16;5050411;28;20041;-75
2021/11/24 07:13:15;;;;;;;36.55;13.32;;;;;;;-1.34;100.00;96033.75;5056145;28;20049;-75
2021/11/24 07:15:41;;;;;;;32.85;12.50;;;;;;;-1.13;100.00;96034.81;5062042;28;20560;-75
2021/11/24 07:18:07;;;;;;;29.58;11.35;;;;;;;-0.94;100.00;96034.19;5065015;28;20045;-75
2021/11/24 07:20:33;;;;;;;25.42;10.73;;;;;;;-0.91;100.00;96038.19;5060424;28;20050;-74
2021/11/24 07:22:58;;;;;;;23.25;10.02;;;;;;;-0.90;100.00;96032.84;5064965;28;20378;-74
2021/11/24 07:25:25;;;;;;;27.52;10.85;;;;;;;-0.94;100.00;96039.34;5061730;28;20048;-75
2021/11/24 07:27:51;;;;;;;30.38;11.38;;;;;;;-0.99;100.00;96035.72;5060726;28;20043;-74
2021/11/24 07:30:19;;;;;;;30.00;12.15;;;;;;;-1.14;100.00;96038.34;5065676;28;20572;-73
2021/11/24 07:32:45;;;;;;;27.17;11.27;;;;;;;-1.10;100.00;96035.22;5061722;28;20042;-74
2021/11/24 07:35:11;;;;;;;27.95;11.65;;;;;;;-1.20;100.00;96037.31;5064249;28;20119;-74
2021/11/24 07:37:37;;;;;;;31.48;12.80;;;;;;;-1.08;100.00;96028.09;5065298;28;20131;-71
2021/11/24 07:40:06;;;;;;;31.73;12.77;;;;;;;-1.00;100.00;96034.94;5066320;28;20056;-75
2021/11/24 07:42:31;;;;;;;30.83;12.00;;;;;;;-1.02;100.00;96036.91;5065075;28;20045;-75
2021/11/24 07:44:57;;;;;;;33.60;12.63;;;;;;;-0.92;100.00;96041.75;5067186;28;20051;-75
2021/11/24 07:47:23;;;;;;;29.42;11.57;;;;;;;-0.76;100.00;96040.72;5054990;28;20055;-75
2021/11/24 07:49:48;;;;;;;28.67;11.38;;;;;;;-0.68;100.00;96029.47;5080954;28;20127;-75
2021/11/24 07:52:14;;;;;;;31.17;12.20;;;;;;;-0.83;100.00;96035.50;5059377;28;20063;-76
2021/11/24 07:54:40;;;;;;;29.35;11.98;;;;;;;-0.65;100.00;96032.47;5067901;28;20044;-76
2021/11/24 07:57:05;;;;;;;31.35;11.68;;;;;;;-0.59;100.00;96029.16;5054305;28;20464;-75
2021/11/24 07:59:31;;;;;;;23.88;10.38;;;;;;;-0.61;100.00;96028.53;5059066;28;20117;-74
2021/11/24 08:01:57;;;;;;;26.73;11.05;;;;;;;-0.65;100.00;96016.97;5057361;28;20041;-74
2021/11/24 08:04:22;;;;;;;30.67;12.00;;;;;;;-0.56;100.00;96031.38;5064524;28;20040;-73
2021/11/24 08:06:48;;;;;;;24.70;10.43;;;;;;;-0.54;100.00;96013.88;5064388;28;20115;-74
2021/11/24 08:09:14;;;;;;;28.80;11.27;;;;;;;-0.54;100.00;96011.28;5064239;28;20045;-73
2021/11/24 08:11:39;;;;;;;24.20;11.65;;;;;;;-0.47;100.00;96015.72;5069083;28;20044;-75
2021/11/24 08:14:05;;;;;;;28.15;11.00;;;;;;;-0.47;100.00;96013.16;5067889;28;20140;-75
2021/11/24 08:16:31;;;;;;;24.42;10.60;;;;;;;-0.54;100.00;96019.03;5076464;28;20056;-74
2021/11/24 08:18:56;;;;;;;22.77;9.77;;;;;;;-0.60;100.00;96017.22;5066840;28;20032;-75
2021/11/24 08:21:22;;;;;;;21.48;10.35;;;;;;;-0.64;100.00;96022.94;5055495;28;20064;-74
2021/11/24 08:23:48;;;;;;;26.90;10.60;;;;;;;-0.75;100.00;96011.31;5069517;28;20090;-75
2021/11/24 08:26:18;;;;;;;24.80;10.55;;;;;;;-0.75;100.00;96006.13;5085514;28;20036;-75
2021/11/24 08:28:43;;;;;;;26.55;9.55;;;;;;;-0.67;100.00;96008.59;5083511;28;20109;-75
2021/11/24 08:31:09;;;;;;;31.27;11.18;;;;;;;-0.66;100.00;95999.88;5070394;28;20040;-75
2021/11/24 08:33:35;;;;;;;26.92;10.95;;;;;;;-0.62;100.00;95995.91;5061825;28;20041;-74
2021/11/24 08:36:01;;;;;;;26.33;10.38;;;;;;;-0.61;100.00;95992.34;5073422;28;20561;-75
2021/11/24 08:38:27;;;;;;;23.17;10.07;;;;;;;-0.67;100.00;95987.91;5105030;22;20064;-74
2021/11/24 08:40:53;;;;;;;23.88;10.32;;;;;;;-0.67;100.00;95979.38;5041851;28;20076;-74
2021/11/24 08:43:19;;;;;;;24.52;10.45;;;;;;;-0.60;100.00;95981.03;5046303;28;20498;-74
2021/11/24 08:45:45;;;;;;;23.92;10.50;;;;;;;-0.48;100.00;95983.09;5041677;28;20092;-74
2021/11/24 08:48:10;;;;;;;25.05;10.82;;;;;;;-0.42;100.00;95984.91;5040279;28;20459;-74
2021/11/24 08:50:36;;;;;;;28.55;10.73;;;;;;;-0.47;100.00;95982.13;5047631;28;20415;-74
2021/11/24 08:53:02;;;;;;;27.10;10.35;;;;;;;-0.55;100.00;95976.09;5025206;28;20045;-74
2021/11/24 08:55:28;;;;;;;30.92;12.25;;;;;;;-0.59;100.00;95980.03;5019238;28;20041;-74
2021/11/24 08:57:54;;;;;;;26.63;11.48;;;;;;;-0.68;100.00;95965.63;5012702;28;20091;-73
2021/11/24 09:00:22;;;;;;;25.80;11.27;;;;;;;-0.89;100.00;95964.69;5029417;28;20037;-74
2021/11/24 09:02:50;;;;;;;27.48;11.32;;;;;;;-0.64;100.00;95966.06;5011221;28;20045;-73
2021/11/24 09:05:17;;;;;;;30.33;11.05;;;;;;;-0.44;100.00;95973.97;5041250;28;20049;-74
2021/11/24 09:07:43;;;;;;;25.00;10.80;;;;;;;-0.49;100.00;95968.56;5022250;28;20678;-73
2021/11/24 09:10:09;;;;;;;27.25;10.85;;;;;;;-0.68;100.00;95970.03;5029958;28;20054;-73
2021/11/24 09:12:35;;;;;;;28.42;11.27;;;;;;;-0.78;100.00;95965.16;5018246;28;20045;-73
2021/11/24 09:15:01;;;;;;;26.85;10.32;;;;;;;-0.85;100.00;95969.47;5011692;28;20491;-73
2021/11/24 09:17:27;;;;;;;27.02;11.10;;;;;;;-0.90;100.00;95973.41;5025734;28;20068;-74
2021/11/24 09:19:52;;;;;;;24.35;9.75;;;;;;;-0.91;100.00;95961.47;5034500;28;20589;-73
2021/11/24 09:22:18;;;;;;;28.63;10.15;;;;;;;-0.90;100.00;95968.25;5025415;28;20099;-74
2021/11/24 09:24:45;;;;;;;29.95;10.95;;;;;;;-0.88;100.00;95966.28;5029096;28;20045;-74
2021/11/24 09:27:18;;;;;;;25.88;10.95;;;;;;;-0.85;100.00;95969.47;5011320;28;20042;-73
2021/11/24 09:29:46;;;;;;;27.45;10.48;;;;;;;-0.90;100.00;95968.25;5029887;28;20044;-75
2021/11/24 09:32:12;;;;;;;25.17;11.00;;;;;;;-0.90;100.00;95968.25;5028798;28;20041;-75
2021/11/24 09:34:38;;;;;;;27.55;11.02;;;;;;;-0.93;100.00;95963.44;5024334;28;20042;-74
2021/11/24 09:37:04;;;;;;;35.65;11.23;;;;;;;-0.90;100.00;95963.06;5007631;28;20045;-73
2021/11/24 09:39:30;;;;;;;28.05;10.43;;;;;;;-0.94;100.00;95964.44;5026369;28;20045;-73
2021/11/24 09:42:00;;;;;;;24.15;10.10;;;;;;;-0.89;100.00;95959.50;5029045;28;20388;-73
2021/11/24 09:44:26;;;;;;;22.83;9.95;;;;;;;-0.89;100.00;95949.19;5009200;28;20047;-73
2021/11/24 09:46:52;;;;;;;19.50;8.27;;;;;;;-0.63;100.00;95949.56;5005698;28;20042;-74
2021/11/24 09:49:18;;;;;;;26.58;10.27;;;;;;;-0.90;100.00;95939.81;5013117;28;20056;-73
2021/11/24 09:51:48;;;;;;;24.10;10.35;;;;;;;-0.91;100.00;95940.00;5027488;28;20041;-72
2021/11/24 09:54:14;;;;;;;22.13;10.23;;;;;;;-0.97;100.00;95938.97;5034240;28;20048;-73
2021/11/24 09:56:41;;;;;;;21.85;9.18;;;;;;;-0.69;100.00;95933.00;5013236;28;20060;-75
2021/11/24 09:59:11;;;;;;;21.15;9.13;;;;;;;-0.67;100.00;95933.63;5022549;28;20045;-74
2021/11/24 10:01:41;;;;;;;27.00;10.18;;;;;;;-0.99;100.00;95922.88;5029168;28;20087;-74
2021/11/24 10:04:08;;;;;;;24.73;10.23;;;;;;;-1.04;100.00;95914.88;5029673;28;20044;-75
2021/11/24 10:06:37;;;;;;;31.65;10.18;;;;;;;-1.09;100.00;95909.47;5009184;28;20049;-74
2021/11/24 10:09:04;;;;;;;24.92;9.55;;;;;;;-0.99;100.00;95907.38;5010065;28;20057;-75
2021/11/24 10:11:29;;;;;;;26.42;9.35;;;;;;;-0.89;100.00;95915.59;5029423;28;20116;-76
2021/11/24 10:13:55;;;;;;;20.42;9.15;;;;;;;-0.68;100.00;95908.78;5030703;28;20168;-74
2021/11/24 10:16:29;;;;;;;25.42;11.38;;;;;;;-0.94;100.00;95910.16;5041493;28;20048;-74
2021/11/24 10:19:07;;;;;;;20.13;9.27;;;;;;;-1.10;100.00;95905.28;5031934;28;20048;-77
2021/11/24 10:21:33;;;;;;;26.05;10.98;;;;;;;-1.25;100.00;95887.25;5030163;28;20038;-77
2021/11/24 10:24:02;;;;;;;23.15;9.18;;;;;;;-1.08;100.00;95890.38;5050146;28;20025;-74
2021/11/24 10:26:37;;;;;;;22.90;9.10;;;;;;;-0.70;100.00;95888.28;5055273;28;20052;-76
2021/11/24 10:29:06;;;;;;;32.25;9.23;;;;;;;-0.76;100.00;95895.97;5051348;28;20041;-75
2021/11/24 10:31:45;;;;;;;20.40;9.63;;;;;;;-0.79;100.00;95880.84;5036187;28;20078;-71
2021/11/24 10:34:19;;;;;;;22.05;8.93;;;;;;;-0.72;100.00;95876.53;5054867;28;20089;-71
2021/11/24 10:37:11;;;;;;;18.33;7.85;;;;;;;-0.67;100.00;95879.34;5055740;28;20057;-78
2021/11/24 10:39:59;;;;;;;19.73;8.45;;;;;;;-0.87;100.00;95882.59;5041632;28;20032;-76
2021/11/24 10:42:31;;;;;;;19.50;7.75;;;;;;;-0.88;100.00;95868.09;5058994;28;20056;-78
2021/11/24 10:45:11;;;;;;;21.55;9.38;;;;;;;-0.83;100.00;95870.13;5059220;28;20104;-76
2021/11/24 10:47:51;;;;;;;20.40;8.27;;;;;;;-0.84;100.00;95863.34;5038410;28;20076;-76
2021/11/24 10:50:19;;;;;;;24.50;9.80;;;;;;;-1.02;100.00;95858.66;5077369;28;20044;-76
2021/11/24 10:52:46;;;;;;;23.42;9.93;;;;;;;-1.21;100.00;95847.16;5076338;28;20030;-76
2021/11/24 10:55:17;;;;;;;30.17;10.18;;;;;;;-1.04;100.00;95837.38;5041759;28;20041;-77
2021/11/24 10:57:57;;;;;;;23.67;9.20;;;;;;;-1.04;100.00;95845.13;5025574;28;20088;-77
2021/11/24 11:00:33;;;;;;;19.17;7.88;;;;;;;-0.94;100.00;95837.03;5031552;28;20426;-77
2021/11/24 11:02:58;;;;;;;22.92;9.85;;;;;;;-1.11;100.00;95836.53;5024753;28;20045;-77
2021/11/24 11:05:25;;;;;;;24.05;9.25;;;;;;;-0.94;100.00;95837.81;5021505;28;20049;-77
2021/11/24 11:07:50;;;;;;;22.50;9.52;;;;;;;-0.96;100.00;95837.22;5027663;28;20045;-77
2021/11/24 11:10:18;;;;;;;21.55;9.57;;;;;;;-0.90;100.00;95839.06;5019448;28;20052;-76